Heber, UT

11:10 AM MST am 28. Januar 2015 (GMT -0700)
Heber | Change Station
CLOSE
Current Station
Flughafen
Location: Heber,
Höhe: 5636 ft
Wetterstationen in der Umgebung

Höhe 5636 ft 40.48 °N, 111.43 °W | Updated 15 minutes ago

Bedeckt
Bedeckt
39 °F
gefühlte 39 °F
N
0
Wind Wechselnd Wind aus Nord

Heute
Max. -- | schwach -- °F
--% Regenrisiko
Gestern
Max. -- | schwach -- °F
Precip. -- inch
7:38 AM 5:38 PM
Zweites Viertel, 66% visible
Druck 30.30 inch
Sichtweite 10.0 Meilen
Wolken Teils Wolkig 2800 ft
Bedeckt 7000 ft
Taupunkt 34 °F
Feuchtigkeit 81%
Regen 0.00 inch
Schneehöhe Nicht verfügbar..
UV 1 von 12
Pollen .10 von 12
Luftqualität Nicht verfügbar..
Flu Activity Nicht verfügbar..
METAR K36U 281755Z AUTO 00000KT 10SM SCT028 OVC070 04/01 A3030 RMK AO2

More Conditions Fewer Conditions

Druck 30.30 inch
Sichtweite 10.0 Meilen
Wolken Teils Wolkig 2800 ft
Bedeckt 7000 ft
Taupunkt 34 °F
Feuchtigkeit 81%
Regen 0.00 inch
Schneehöhe Nicht verfügbar..
UV 1 von 12
Pollen .10 von 12
Luftqualität Nicht verfügbar..
Flu Activity Nicht verfügbar..
METAR K36U 281755Z AUTO 00000KT 10SM SCT028 OVC070 04/01 A3030 RMK AO2

More Conditions Fewer Conditions

10-Day Weather Forecast

Almanac

Astronomie

Jan. 28, 2015 Aufgang Untergang
Genaue Zeit
Bürgerliche Dämmerung
Nautische Dämmerung
Astronomische Dämmerung
Mond
Länge des sichtbaren Lichts
Tageslänge
Tomorrow will be .
, % of the Moon is Illuminated

Heutige Rekorde

State Highs State Lows

Community

WunderPhotos

Upload Photos

1,791,237 Fotos hochgeladen!

WunderBlogs® & News

Nearby

Luftqualität

  Luftqualität LQ Index Schadstoff
Not available.

Schneehöhe

Station Depth Höhe

Erdbebenaktivität

Stadt Distance Mag. Time & Date
Minimum magnitude displayed is 2.5.

küstennahe Wassertemperaturen

Ort Temperatur

Wetterstationen in der Umgebung